createdAt,value
2022-11-17T00:01:56.097Z,99069.84
2022-11-17T00:06:57.340Z,99069.94
2022-11-17T00:12:22.074Z,99058.81
2022-11-17T00:17:23.384Z,99057.06
2022-11-17T00:22:24.511Z,99064.00
2022-11-17T00:27:26.645Z,99068.31
2022-11-17T00:32:44.763Z,99064.91
2022-11-17T00:37:59.455Z,99063.50
2022-11-17T00:43:01.561Z,99065.16
2022-11-17T00:48:02.338Z,99055.75
2022-11-17T00:53:03.112Z,99048.97
2022-11-17T00:58:05.465Z,99042.13
2022-11-17T01:03:06.239Z,99049.13
2022-11-17T01:08:07.047Z,99042.13
2022-11-17T01:13:09.257Z,99052.66
2022-11-17T01:18:11.029Z,99042.38
2022-11-17T01:23:11.790Z,99043.97
2022-11-17T01:28:13.932Z,99043.22
2022-11-17T01:33:14.905Z,99041.53
2022-11-17T01:38:15.680Z,99043.25
2022-11-17T01:43:17.919Z,99028.63
2022-11-17T01:48:18.786Z,99021.78
2022-11-17T01:53:22.263Z,99028.59
2022-11-17T01:58:29.277Z,99038.00
2022-11-17T02:03:34.711Z,99026.91
2022-11-17T02:08:39.489Z,99023.47
2022-11-17T02:13:42.390Z,99026.06
2022-11-17T02:18:45.217Z,99015.84
2022-11-17T02:24:21.984Z,99006.44
2022-11-17T02:29:31.369Z,99004.88
2022-11-17T02:34:39.279Z,99001.31
2022-11-17T02:39:44.857Z,98994.50
2022-11-17T02:44:56.652Z,99002.09
2022-11-17T02:50:01.844Z,99009.88
2022-11-17T02:55:03.824Z,99005.66
2022-11-17T03:00:12.018Z,99005.59
2022-11-17T03:05:18.073Z,99007.31
2022-11-17T03:10:22.234Z,98993.53
2022-11-17T03:15:33.900Z,98991.91
2022-11-17T03:20:41.467Z,98992.72
2022-11-17T03:25:46.142Z,98987.50
2022-11-17T03:30:51.264Z,98993.44
2022-11-17T03:35:55.901Z,98981.53
2022-11-17T03:41:01.581Z,98979.78
2022-11-17T03:46:07.419Z,98985.03
2022-11-17T03:51:12.567Z,98982.38
2022-11-17T03:56:26.303Z,98990.06
2022-11-17T04:01:30.666Z,98987.50
2022-11-17T04:06:31.520Z,98980.63
2022-11-17T04:11:55.351Z,98969.44
2022-11-17T04:16:57.487Z,98969.44
2022-11-17T04:21:58.330Z,98960.22
2022-11-17T04:27:16.772Z,98959.22
2022-11-17T04:32:18.880Z,98960.00
2022-11-17T04:37:19.638Z,98963.50
2022-11-17T04:42:20.401Z,98963.47
2022-11-17T04:47:22.508Z,98965.28
2022-11-17T04:52:28.477Z,98952.31
2022-11-17T04:57:30.610Z,98946.25
2022-11-17T05:02:32.743Z,98944.56
2022-11-17T05:07:33.600Z,98941.88
2022-11-17T05:12:51.775Z,98942.81
2022-11-17T05:17:53.908Z,98939.50
2022-11-17T05:23:12.150Z,98941.56
2022-11-17T05:28:13.006Z,98925.25
2022-11-17T05:33:15.131Z,98918.22
2022-11-17T05:38:15.890Z,98924.59
2022-11-17T05:43:16.637Z,98917.59
2022-11-17T05:48:18.824Z,98915.84
2022-11-17T05:53:19.620Z,98917.69
2022-11-17T05:58:23.745Z,98915.97
2022-11-17T06:03:30.248Z,98928.84
2022-11-17T06:08:31.754Z,98934.75
2022-11-17T06:13:32.907Z,98938.25
2022-11-17T06:18:39.027Z,98927.94
2022-11-17T06:23:39.860Z,98927.00
2022-11-17T06:28:44.343Z,98925.25
2022-11-17T06:33:47.368Z,98919.34
2022-11-17T06:38:48.200Z,98929.56
2022-11-17T06:43:49.000Z,98931.06
2022-11-17T06:48:51.119Z,98916.50
2022-11-17T06:53:51.943Z,98916.34
2022-11-17T06:58:52.736Z,98908.72
2022-11-17T07:03:54.939Z,98901.00
2022-11-17T07:08:58.659Z,98901.13
2022-11-17T07:13:59.529Z,98899.38
2022-11-17T07:19:03.846Z,98899.31
2022-11-17T07:24:05.008Z,98907.06
2022-11-17T07:29:05.854Z,98894.91
2022-11-17T07:34:08.066Z,98901.47
2022-11-17T07:39:08.863Z,98903.25
2022-11-17T07:44:10.081Z,98902.19
2022-11-17T07:49:12.452Z,98900.50
2022-11-17T07:54:13.278Z,98898.53
2022-11-17T07:59:18.490Z,98909.44
2022-11-17T08:04:25.434Z,98893.81
2022-11-17T08:09:26.377Z,98900.94
2022-11-17T08:14:29.837Z,98908.31
2022-11-17T08:19:32.212Z,98901.31
2022-11-17T08:24:33.082Z,98889.94
2022-11-17T08:29:33.875Z,98886.38
2022-11-17T08:34:36.289Z,98885.53
2022-11-17T08:39:37.404Z,98891.38
2022-11-17T08:44:38.516Z,98879.06
2022-11-17T08:49:40.937Z,98877.09
2022-11-17T08:54:41.783Z,98890.03
2022-11-17T08:59:42.749Z,98888.28
2022-11-17T09:04:46.116Z,98892.09
2022-11-17T09:09:48.559Z,98901.28
2022-11-17T09:14:49.453Z,98903.81
2022-11-17T09:19:51.886Z,98907.38
2022-11-17T09:24:54.115Z,98912.84
2022-11-17T09:29:54.978Z,98898.69
2022-11-17T09:34:57.216Z,98904.44
2022-11-17T09:39:58.467Z,98898.63
2022-11-17T09:45:06.370Z,98893.91
2022-11-17T09:50:20.141Z,98888.06
2022-11-17T09:55:32.747Z,98889.19
2022-11-17T10:00:37.665Z,98882.88
2022-11-17T10:05:40.080Z,98887.03
2022-11-17T10:10:46.941Z,98881.28
2022-11-17T10:15:50.893Z,98874.94
2022-11-17T10:20:53.179Z,98878.19
2022-11-17T10:25:59.154Z,98866.72
2022-11-17T10:31:01.574Z,98862.41
2022-11-17T10:36:06.142Z,98854.56
2022-11-17T10:41:06.980Z,98833.50
2022-11-17T10:46:17.022Z,98829.31
2022-11-17T11:54:04.900Z,98795.47
2022-11-17T11:59:08.859Z,98784.69
2022-11-17T12:04:21.016Z,98796.00
2022-11-17T12:09:58.387Z,98780.06
2022-11-17T12:15:31.962Z,98769.25
2022-11-17T12:20:52.909Z,98768.63
2022-11-17T12:25:57.079Z,98767.44
2022-11-17T12:31:03.719Z,98763.50
2022-11-17T12:36:30.863Z,98757.00
2022-11-17T12:42:08.857Z,98764.63
2022-11-17T12:47:15.152Z,98762.38
2022-11-17T12:52:21.573Z,98763.38
2022-11-17T12:57:28.046Z,98769.00
2022-11-17T13:02:41.653Z,98755.38
2022-11-17T13:07:42.400Z,98753.16
2022-11-17T13:12:44.476Z,98741.25
2022-11-17T13:17:45.535Z,98747.41
2022-11-17T13:23:00.052Z,98759.31
2022-11-17T13:28:05.115Z,98757.47
2022-11-17T13:33:16.118Z,98762.66
2022-11-17T13:38:20.178Z,98755.84
2022-11-17T13:43:24.358Z,98749.72
2022-11-17T13:48:33.172Z,98745.53
2022-11-17T13:53:34.183Z,98750.97
2022-11-17T13:58:40.926Z,98747.50
2022-11-17T14:03:43.643Z,98740.66
2022-11-17T14:09:02.269Z,98747.63
2022-11-17T14:14:13.807Z,98744.00
2022-11-17T14:19:33.967Z,98747.59
2022-11-17T14:24:34.758Z,98752.69
2022-11-17T14:29:36.808Z,98758.78
2022-11-17T14:34:37.484Z,98756.19
2022-11-17T14:39:38.219Z,98749.34
2022-11-17T14:44:40.233Z,98749.72
2022-11-17T14:49:40.970Z,98747.78
2022-11-17T14:54:41.635Z,98735.75
2022-11-17T14:59:43.771Z,98741.78
2022-11-17T15:04:50.446Z,98739.44
2022-11-17T15:09:52.282Z,98745.19
2022-11-17T15:14:55.518Z,98748.72
2022-11-17T15:19:56.304Z,98755.75
2022-11-17T15:24:57.055Z,98754.75
2022-11-17T15:29:59.193Z,98759.88
2022-11-17T15:34:59.957Z,98753.09
2022-11-17T15:40:00.777Z,98764.22
2022-11-17T15:45:02.978Z,98761.59
2022-11-17T15:50:03.816Z,98758.25
2022-11-17T15:55:05.140Z,98763.53
2022-11-17T16:00:09.083Z,98767.66
2022-11-17T16:05:10.162Z,98760.03
2022-11-17T16:10:12.214Z,98754.75
2022-11-17T16:15:14.492Z,98753.13
2022-11-17T16:20:15.888Z,98743.69
2022-11-17T16:25:17.009Z,98744.59
2022-11-17T16:30:19.591Z,98744.59
2022-11-17T16:35:20.619Z,98749.81
2022-11-17T16:40:22.779Z,98748.97
2022-11-17T16:45:24.892Z,98742.00
2022-11-17T16:50:25.858Z,98737.72
2022-11-17T16:55:26.671Z,98734.44
2022-11-17T17:00:29.034Z,98734.66
2022-11-17T17:05:30.250Z,98749.19
2022-11-17T17:10:31.257Z,98744.09
2022-11-17T17:15:33.971Z,98744.91
2022-11-17T17:20:34.787Z,98742.41
2022-11-17T17:25:35.508Z,98738.97
2022-11-17T17:30:37.659Z,98733.63
2022-11-17T17:35:38.441Z,98745.25
2022-11-17T17:40:39.193Z,98738.78
2022-11-17T17:45:41.332Z,98736.31
2022-11-17T17:50:42.085Z,98736.75
2022-11-17T17:55:42.852Z,98733.31
2022-11-17T18:00:47.295Z,98732.38
2022-11-17T18:05:48.076Z,98740.03
2022-11-17T18:10:48.843Z,98734.03
2022-11-17T18:15:50.984Z,98723.69
2022-11-17T18:20:59.579Z,98743.00
2022-11-17T18:26:00.376Z,98732.28
2022-11-17T18:31:04.314Z,98744.53
2022-11-17T18:36:06.711Z,98737.16
2022-11-17T18:41:10.219Z,98734.03
2022-11-17T18:46:14.124Z,98743.25
2022-11-17T18:51:19.982Z,98725.19
2022-11-17T18:56:24.255Z,98728.91
2022-11-17T19:01:28.849Z,98724.00
2022-11-17T19:06:30.196Z,98710.38
2022-11-17T19:11:33.170Z,98733.75
2022-11-17T19:16:44.355Z,98732.97
2022-11-17T19:21:45.495Z,98737.34
2022-11-17T19:26:47.400Z,98738.28
2022-11-17T19:31:51.159Z,98738.03
2022-11-17T19:36:51.975Z,98737.84
2022-11-17T19:41:53.359Z,98739.34
2022-11-17T19:46:55.677Z,98741.84
2022-11-17T19:51:56.442Z,98744.28
2022-11-17T19:56:57.295Z,98745.97
2022-11-17T20:01:59.438Z,98748.50
2022-11-17T20:07:00.316Z,98744.13
2022-11-17T20:12:01.105Z,98729.50
2022-11-17T20:17:03.219Z,98734.09
2022-11-17T20:22:04.012Z,98746.19
2022-11-17T20:27:04.835Z,98748.69
2022-11-17T20:32:07.107Z,98746.78
2022-11-17T20:37:07.916Z,98739.00
2022-11-17T20:42:08.700Z,98740.66
2022-11-17T20:47:11.079Z,98732.84
2022-11-17T20:52:13.457Z,98742.53
2022-11-17T20:57:14.435Z,98738.09
2022-11-17T21:02:16.645Z,98756.84
2022-11-17T21:07:17.583Z,98731.06
2022-11-17T21:12:18.620Z,98741.13
2022-11-17T21:17:38.344Z,98749.81
2022-11-17T21:22:39.157Z,98751.25
2022-11-17T21:27:40.001Z,98758.78
2022-11-17T21:32:42.091Z,98758.78
2022-11-17T21:37:42.974Z,98745.63
2022-11-17T21:42:44.189Z,98746.72
2022-11-17T21:47:46.304Z,98727.72
2022-11-17T21:52:47.089Z,98731.03
2022-11-17T21:57:51.089Z,98731.72
2022-11-17T22:02:53.273Z,98741.31
2022-11-17T22:07:54.072Z,98742.22
2022-11-17T22:12:54.901Z,98754.97
2022-11-17T22:17:56.997Z,98760.97
2022-11-17T22:22:58.075Z,98769.78
2022-11-17T22:27:58.820Z,98759.44
2022-11-17T22:33:00.936Z,98761.09
2022-11-17T22:38:01.681Z,98762.09
2022-11-17T22:43:04.576Z,98758.41
2022-11-17T22:48:07.552Z,98754.06
2022-11-17T22:53:08.367Z,98758.22
2022-11-17T22:58:09.299Z,98760.97
2022-11-17T23:03:12.445Z,98766.91
2022-11-17T23:08:13.263Z,98763.31
2022-11-17T23:13:14.023Z,98754.75
2022-11-17T23:18:16.171Z,98751.09
2022-11-17T23:23:17.321Z,98750.34
2022-11-17T23:28:18.090Z,98761.78
2022-11-17T23:33:20.184Z,98770.22
2022-11-17T23:38:20.961Z,98769.25
2022-11-17T23:43:21.851Z,98781.25
2022-11-17T23:48:24.550Z,98788.84
2022-11-17T23:53:25.303Z,98785.47
2022-11-17T23:58:26.110Z,98787.03
